Ajda — OMXE — position and weather

sailwx.info

Track history (hours):
 
Tides and Currents Weather Stations Pressure Air Temp Water Temp Dewpoint Dewpoint Depression Visibility Wind Speed Wind Dir Waves Ship Positions

Ajda

Last reported at 2018-Jan-06 12:04 UTC. Time now 2018-Feb-23 04:29 UTC.
Position N 35°55' E 014°31'.
Warning: this ship's position is 47 days out of date.

Length 14 m.

Type: Sailing vessel. MMSI: 267210138.

Date/timePositionNaut miles runAvg speedWind from/ knotsBaromVisibWave heightAir tempDewpointWater temp
2018-Jan-06 12:04N 35°55' E 014°31'0 4.9
2018-Jan-06 12:00N 35°55' E 014°31'1 2.9
2018-Jan-06 11:30N 35°56' E 014°30'3 5.7
2018-Jan-06 11:00N 35°58' E 014°27'3 6.7
2018-Jan-06 10:30N 35°58' E 014°23'1 2.6
2018-Jan-06 09:59N 35°59' E 014°22'0 0.0
2018-Jan-06 09:20N 35°59' E 014°22'0 0.0
2018-Jan-06 08:56N 35°59' E 014°22'0 0.0
2018-Jan-06 08:23N 35°59' E 014°22'0 0.0
2018-Jan-06 07:59N 35°59' E 014°22'0 0.0
2018-Jan-06 07:29N 35°59' E 014°22'0 0.0
2018-Jan-06 06:59N 35°59' E 014°22'0 0.0
2018-Jan-06 06:29N 35°59' E 014°22'0 0.0
2018-Jan-06 05:41N 35°59' E 014°22'0 0.0
2018-Jan-06 05:27N 35°59' E 014°22'0 0.0
2018-Jan-06 04:55N 35°59' E 014°22'0 0.0
2018-Jan-06 04:30N 35°59' E 014°22'0 0.0
2018-Jan-06 03:52N 35°59' E 014°22'0 0.0
2018-Jan-06 03:07N 35°59' E 014°22'0 0.0
2018-Jan-06 03:00N 35°59' E 014°22'0 0.0
2018-Jan-06 02:30N 35°59' E 014°22'0 0.0
2018-Jan-06 01:57N 35°59' E 014°22'0 0.0
2018-Jan-06 01:24N 35°59' E 014°22'0 0.0
2018-Jan-06 01:00N 35°59' E 014°22'0 0.0
2018-Jan-06 00:30N 35°59' E 014°22'0 0.0
2018-Jan-05 23:54N 35°59' E 014°22'0 0.0
2018-Jan-05 23:31N 35°59' E 014°22'0 0.0
2018-Jan-05 22:54N 35°59' E 014°22'0 0.0
2018-Jan-05 22:12N 35°59' E 014°22'0 0.0
2018-Jan-05 21:57N 35°59' E 014°22'0 0.0
2018-Jan-05 21:27N 35°59' E 014°22'0 0.0
2018-Jan-05 20:51N 35°59' E 014°22'0 0.0
2018-Jan-05 20:09N 35°59' E 014°22'0 0.0
2018-Jan-05 19:58N 35°59' E 014°22'0 0.0
2018-Jan-05 19:24N 35°59' E 014°22'0 0.0
2018-Jan-05 19:00N 35°59' E 014°22'0 0.0
2018-Jan-05 18:30N 35°59' E 014°22'0 0.0
2018-Jan-05 17:55N 35°59' E 014°22'0 0.0
2018-Jan-05 17:27N 35°59' E 014°22'0 0.0
2018-Jan-05 17:00N 35°59' E 014°22'0 0.0
2018-Jan-05 16:30N 35°59' E 014°22'0 0.0
2018-Jan-05 16:00N 35°59' E 014°22'0 0.0
2018-Jan-05 15:18N 35°59' E 014°22'0 0.0
2018-Jan-05 14:54N 35°59' E 014°22'0 0.0
2018-Jan-05 14:27N 35°59' E 014°22'0 0.0
2018-Jan-05 13:57N 35°59' E 014°22'0 0.0
2018-Jan-05 13:30N 35°59' E 014°22'0 0.0
2018-Jan-05 12:54N 35°59' E 014°22'1 2.5
2018-Jan-05 12:29N 35°59' E 014°23'3 5.5
2018-Jan-05 12:00N 36°00' E 014°26'2 4.6
2018-Jan-05 11:30N 35°58' E 014°26'2 3.0
2018-Jan-05 11:00N 35°59' E 014°28'1 2.1
2018-Jan-05 10:30N 35°58' E 014°28'3 5.8
2018-Jan-05 10:00N 35°60' E 014°30'3 4.9
2018-Jan-05 09:30N 35°58' E 014°31'  
Track history (hours):
 
Tides and Currents Weather Stations Pressure Air Temp Water Temp Dewpoint Dewpoint Depression Visibility Wind Speed Wind Dir Waves Ship Positions

Ajda

Last reported at 2018-Jan-06 12:04 UTC. Time now 2018-Feb-23 04:29 UTC.
Position N 35°55' E 014°31'.
Warning: this ship's position is 47 days out of date.

Length 14 m.

Type: Sailing vessel. MMSI: 267210138.

Date/timePositionNaut miles runAvg speedWind from/ knotsBaromVisibWave heightAir tempDewpointWater temp
2018-Jan-06 12:04N 35°55' E 014°31'0 4.9
2018-Jan-06 12:00N 35°55' E 014°31'1 2.9
2018-Jan-06 11:30N 35°56' E 014°30'3 5.7
2018-Jan-06 11:00N 35°58' E 014°27'3 6.7
2018-Jan-06 10:30N 35°58' E 014°23'1 2.6
2018-Jan-06 09:59N 35°59' E 014°22'0 0.0
2018-Jan-06 09:20N 35°59' E 014°22'0 0.0
2018-Jan-06 08:56N 35°59' E 014°22'0 0.0
2018-Jan-06 08:23N 35°59' E 014°22'0 0.0
2018-Jan-06 07:59N 35°59' E 014°22'0 0.0
2018-Jan-06 07:29N 35°59' E 014°22'0 0.0
2018-Jan-06 06:59N 35°59' E 014°22'0 0.0
2018-Jan-06 06:29N 35°59' E 014°22'0 0.0
2018-Jan-06 05:41N 35°59' E 014°22'0 0.0
2018-Jan-06 05:27N 35°59' E 014°22'0 0.0
2018-Jan-06 04:55N 35°59' E 014°22'0 0.0
2018-Jan-06 04:30N 35°59' E 014°22'0 0.0
2018-Jan-06 03:52N 35°59' E 014°22'0 0.0
2018-Jan-06 03:07N 35°59' E 014°22'0 0.0
2018-Jan-06 03:00N 35°59' E 014°22'0 0.0
2018-Jan-06 02:30N 35°59' E 014°22'0 0.0
2018-Jan-06 01:57N 35°59' E 014°22'0 0.0
2018-Jan-06 01:24N 35°59' E 014°22'0 0.0
2018-Jan-06 01:00N 35°59' E 014°22'0 0.0
2018-Jan-06 00:30N 35°59' E 014°22'0 0.0
2018-Jan-05 23:54N 35°59' E 014°22'0 0.0
2018-Jan-05 23:31N 35°59' E 014°22'0 0.0
2018-Jan-05 22:54N 35°59' E 014°22'0 0.0
2018-Jan-05 22:12N 35°59' E 014°22'0 0.0
2018-Jan-05 21:57N 35°59' E 014°22'0 0.0
2018-Jan-05 21:27N 35°59' E 014°22'0 0.0
2018-Jan-05 20:51N 35°59' E 014°22'0 0.0
2018-Jan-05 20:09N 35°59' E 014°22'0 0.0
2018-Jan-05 19:58N 35°59' E 014°22'0 0.0
2018-Jan-05 19:24N 35°59' E 014°22'0 0.0
2018-Jan-05 19:00N 35°59' E 014°22'0 0.0
2018-Jan-05 18:30N 35°59' E 014°22'0 0.0
2018-Jan-05 17:55N 35°59' E 014°22'0 0.0
2018-Jan-05 17:27N 35°59' E 014°22'0 0.0
2018-Jan-05 17:00N 35°59' E 014°22'0 0.0
2018-Jan-05 16:30N 35°59' E 014°22'0 0.0
2018-Jan-05 16:00N 35°59' E 014°22'0 0.0
2018-Jan-05 15:18N 35°59' E 014°22'0 0.0
2018-Jan-05 14:54N 35°59' E 014°22'0 0.0
2018-Jan-05 14:27N 35°59' E 014°22'0 0.0
2018-Jan-05 13:57N 35°59' E 014°22'0 0.0
2018-Jan-05 13:30N 35°59' E 014°22'0 0.0
2018-Jan-05 12:54N 35°59' E 014°22'1 2.5
2018-Jan-05 12:29N 35°59' E 014°23'3 5.5
2018-Jan-05 12:00N 36°00' E 014°26'2 4.6
2018-Jan-05 11:30N 35°58' E 014°26'2 3.0
2018-Jan-05 11:00N 35°59' E 014°28'1 2.1
2018-Jan-05 10:30N 35°58' E 014°28'3 5.8
2018-Jan-05 10:00N 35°60' E 014°30'3 4.9
2018-Jan-05 09:30N 35°58' E 014°31'  

Dump ship's entire track history